Архив погоды в Баяндае

Метеограмма Баяндай
Понедельник, 16 Июля
Время местн. Темп Ветер Видим Явления Облачность нижн/средн/верх Атм. давл. Влжн Точка росы ВНГО R Сост. почвы Tg s
Напр Скр Прв ур.ст ур.м изм
05:00 +14.2° штиль 0 - более 50 км - облачно с прояснениями 688 752 -0.3 83% +11.3° более 2.5 км - - - -
02:00 +17.2° З 1 - более 50 км - облачно с прояснениями 688 752 0 64% +10.3° более 2.5 км - - - -
Воскресенье, 15 Июля
Время местн. Темп Ветер Видим Явления Облачность нижн/средн/верх Атм. давл. Влжн Точка росы ВНГО R Сост. почвы Tg s
Напр Скр Прв ур.ст ур.м изм
23:00 +19.8° З 1 - более 50 км - облачно с прояснениями 688 751 +0.5 56% +10.7° более 2.5 км - - - -
20:00 +25.1° штиль 0 - более 50 км - преимущественно облачно 688 750 +0.3 39% +10.1° 1.5 км 0 - - -
17:00 +26.7° Ю-В 3 - более 50 км - облачно 688 749 -0.4 35% +9.8° 1.5 км - - - -
14:00 +25.5° Ю-В 2 - более 50 км - облачно 688 750 -0.8 38% +10.1° 1.5 км - - - -
11:00 +23.6° В 2 - более 50 км - облачно 689 751 -0.5 42% +9.9° более 2.5 км - - - -
08:00 +16.6° С,С-В 3 - более 50 км - переменная облачность 689 753 +0.5 69% +11° более 2.5 км 0 Сухая (без трещин) +10° -
05:00 +11.5° С-В 1 - более 50 км - ясно 689 754 -0.2 84% +8.9° более 2.5 км - - - -
02:00 +14° С,С-В 2 - более 50 км - ясно 689 753 -0.3 69% +8.5° более 2.5 км - - - -
Суббота, 14 Июля
Время местн. Темп Ветер Видим Явления Облачность нижн/средн/верх Атм. давл. Влжн Точка росы ВНГО R Сост. почвы Tg s
Напр Скр Прв ур.ст ур.м изм
23:00 +17.4° З,С-З 1 - более 50 км - ясно 689 753 +0.6 60% +9.6° более 2.5 км - - - -
20:00 +23.9° В 1 - более 50 км - ясно 689 751 +0.5 32% +6.3° более 2.5 км 0 - - -
17:00 +25.7° З,С-З 1 - более 50 км - переменная облачность 688 750 -0.5 33% +8.3° 1 км - - - -
14:00 +23° В 3 - более 50 км - переменная облачность 689 751 -0.5 45% +10.3° 1 км - - - -
11:00 +20.2° В 2 - более 50 км - переменная облачность 689 752 -0.2 60% +12.2° 1 км - - - -
08:00 -14.3° С-В 2 - 20 км - ясно 690 754 0 681% +11.7° более 2.5 км 0 Сухая (без трещин) +8° -
05:00 +10.8° С,С-В 1 - 20 км - переменная облачность 690 755 -0.1 94% +9.9° 1.5 км - - - -
02:00 +13.3° С 2 - более 50 км - ясно 690 754 +0.2 85% +10.9° более 2.5 км - - - -
Пятница, 13 Июля
Время местн. Темп Ветер Видим Явления Облачность нижн/средн/верх Атм. давл. Влжн Точка росы ВНГО R Сост. почвы Tg s
Напр Скр Прв ур.ст ур.м изм
23:00 +16.3° С,С-В 2 - более 50 км - переменная облачность 689 753 +0.8 71% +11.1° 1.5 км - - - -
20:00 +20.4° З,С-З 2 - более 50 км - преимущественно облачно 689 751 +0.1 63% +13.2° 1.5 км 0 - - -
17:00 +21.4° З 3 - более 50 км - преимущественно облачно 688 751 0 55% +12.1° 1 км - - - -
14:00 +22.3° С 3 - более 50 км - облачно с прояснениями 688 751 -0.2 47% +10.5° 1 км - - - -
11:00 +20.2° С 4 10 более 50 км - преимущественно облачно 689 751 +0.3 60% +12.3° 1 км - - - -
08:00 +16.1° С 4 - более 50 км - облачно 688 752 +0.6 83% +13.3° 1 км 2 Влажная (без луж) +13° -
05:00 +14.3° С 2 - более 50 км ливневый дождь облачно 688 752 -0.3 89% +12.5° 1 км - - - -
02:00 +13.4° З 1 - более 50 км слабый ливневый дождь облачно 688 752 -0.5 94% +12.5° 1 км - - - -